Time;durP1;ratioP1;P1;durP2;ratioP2;P2;SDS_P1;SDS_P2;PMS_P1;PMS_P2;Temp;Humidity;BMP_temperature;BMP_pressure;BME280_temperature;BME280_humidity;BME280_pressure;Samples;Min_cycle;Max_cycle;Signal;HPM_P1;HPM_P2
2022/04/08 00:01:41;;;;;;;4.32;1.30;;;9.20;74.20;;;;;;5075199;28;20039;-63
2022/04/08 00:04:06;;;;;;;8.10;1.63;;;9.20;74.10;;;;;;5075175;28;20342;-63
2022/04/08 00:06:32;;;;;;;5.88;1.88;;;9.20;74.10;;;;;;5076733;28;20040;-63
2022/04/08 00:08:57;;;;;;;8.57;1.90;;;9.20;74.00;;;;;;5060159;28;20036;-63
2022/04/08 00:11:23;;;;;;;5.22;1.55;;;9.20;73.90;;;;;;5055745;28;20084;-63
2022/04/08 00:13:52;;;;;;;7.90;1.90;;;9.20;73.90;;;;;;5060604;28;20070;-63
2022/04/08 00:16:19;;;;;;;5.68;1.02;;;9.20;74.00;;;;;;5056382;28;20029;-63
2022/04/08 00:18:45;;;;;;;6.75;1.35;;;9.10;73.90;;;;;;5059790;28;20040;-63
2022/04/08 00:21:12;;;;;;;5.93;0.95;;;9.10;74.00;;;;;;5055958;28;20025;-63
2022/04/08 00:23:37;;;;;;;3.80;1.35;;;9.00;74.60;;;;;;5067199;28;20029;-63
2022/04/08 00:26:03;;;;;;;5.68;1.40;;;9.00;74.00;;;;;;5058914;28;20087;-63
2022/04/08 00:28:29;;;;;;;5.45;1.08;;;9.10;73.90;;;;;;5065625;28;20035;-63
2022/04/08 00:30:55;;;;;;;6.93;1.58;;;9.10;73.70;;;;;;5075568;28;20023;-63
2022/04/08 00:33:21;;;;;;;3.75;0.88;;;9.10;73.70;;;;;;5068465;28;20025;-63
2022/04/08 00:35:46;;;;;;;5.85;1.45;;;9.10;73.70;;;;;;5042575;28;20025;-63
2022/04/08 00:38:12;;;;;;;4.05;1.13;;;9.10;73.60;;;;;;5060812;28;20032;-63
2022/04/08 00:40:38;;;;;;;8.05;2.17;;;9.10;73.40;;;;;;5062327;28;20021;-64
2022/04/08 00:43:33;;;;;;;8.43;1.77;;;9.10;73.30;;;;;;5056853;28;20036;-63
2022/04/08 00:45:58;;;;;;;6.57;1.33;;;9.10;73.30;;;;;;5056050;28;20036;-64
2022/04/08 00:48:24;;;;;;;6.55;1.23;;;9.00;73.30;;;;;;5069784;28;20489;-63
2022/04/08 00:50:49;;;;;;;5.40;1.13;;;9.00;73.20;;;;;;5072192;28;20452;-63
2022/04/08 00:53:15;;;;;;;5.63;1.35;;;9.00;73.20;;;;;;5066639;28;20334;-64
2022/04/08 00:55:41;;;;;;;4.35;1.20;;;9.00;73.00;;;;;;5075278;28;20464;-63
2022/04/08 00:58:07;;;;;;;6.80;1.27;;;9.00;73.20;;;;;;5071070;28;20040;-63
2022/04/08 01:00:35;;;;;;;5.50;0.98;;;9.00;73.20;;;;;;5075097;28;20036;-63
2022/04/08 01:03:01;;;;;;;6.43;1.00;;;9.00;73.20;;;;;;5067558;28;20031;-64
2022/04/08 01:05:27;;;;;;;7.75;1.70;;;9.00;73.20;;;;;;5054627;28;20035;-63
2022/04/08 01:07:54;;;;;;;6.28;1.33;;;9.10;73.20;;;;;;5059491;28;20021;-63
2022/04/08 01:10:20;;;;;;;4.13;1.13;;;9.10;73.10;;;;;;5054779;28;20033;-63
2022/04/08 01:12:47;;;;;;;7.75;1.67;;;9.00;73.00;;;;;;5055152;28;20090;-63
2022/04/08 01:15:13;;;;;;;3.63;1.48;;;9.00;72.90;;;;;;5055091;28;20495;-63
2022/04/08 01:17:39;;;;;;;8.20;1.58;;;9.00;72.70;;;;;;5057659;28;20124;-63
2022/04/08 01:20:05;;;;;;;9.10;2.50;;;9.00;72.50;;;;;;5053905;28;20035;-63
2022/04/08 01:22:32;;;;;;;6.10;1.73;;;9.10;73.10;;;;;;5057687;28;20344;-63
2022/04/08 01:25:02;;;;;;;10.13;2.10;;;9.00;72.20;;;;;;5054508;28;20029;-63
2022/04/08 01:27:28;;;;;;;8.25;1.88;;;9.00;72.10;;;;;;5058446;28;20404;-63
2022/04/08 01:29:55;;;;;;;7.32;1.67;;;8.90;72.00;;;;;;5060646;28;20037;-62
2022/04/08 01:32:21;;;;;;;8.10;2.38;;;8.80;71.90;;;;;;5069551;28;20076;-63
2022/04/08 01:34:49;;;;;;;7.28;1.52;;;8.90;71.80;;;;;;5074959;28;20032;-63
2022/04/08 01:37:15;;;;;;;5.03;1.40;;;8.90;71.70;;;;;;5060415;28;20025;-63
2022/04/08 01:39:41;;;;;;;7.60;1.67;;;8.90;71.50;;;;;;5055676;28;20025;-63
2022/04/08 01:42:07;;;;;;;6.93;1.60;;;8.90;71.40;;;;;;5062041;28;20454;-63
2022/04/08 01:44:35;;;;;;;10.45;2.10;;;8.90;71.30;;;;;;5054799;28;20118;-63
2022/04/08 01:47:01;;;;;;;7.45;1.48;;;8.90;71.10;;;;;;5066574;28;20028;-63
2022/04/08 01:49:26;;;;;;;7.35;1.73;;;8.80;71.10;;;;;;5073647;28;20361;-63
2022/04/08 01:51:52;;;;;;;5.80;1.50;;;8.80;71.10;;;;;;5066108;28;20417;-64
2022/04/08 01:54:17;;;;;;;13.05;2.55;;;8.80;71.10;;;;;;5054603;28;20043;-63
2022/04/08 01:56:43;;;;;;;6.97;1.30;;;8.80;70.90;;;;;;5060179;28;20045;-64
2022/04/08 01:59:09;;;;;;;7.03;1.70;;;8.80;70.90;;;;;;5074844;28;20024;-63
2022/04/08 02:01:34;;;;;;;4.68;1.38;;;8.70;70.80;;;;;;5068396;28;20021;-63
2022/04/08 02:04:00;;;;;;;8.48;1.88;;;8.70;70.90;;;;;;5054297;28;20100;-63
2022/04/08 02:06:25;;;;;;;11.10;1.63;;;8.70;70.90;;;;;;5055644;28;20124;-63
2022/04/08 02:08:53;;;;;;;9.48;1.77;;;8.70;71.50;;;;;;5054406;28;20033;-63
2022/04/08 02:11:20;;;;;;;9.13;1.65;;;8.70;70.70;;;;;;5056786;28;20133;-64
2022/04/08 02:13:46;;;;;;;6.32;1.45;;;8.70;70.70;;;;;;5074342;28;20040;-63
2022/04/08 02:16:12;;;;;;;7.28;1.70;;;8.60;70.70;;;;;;5070732;28;20385;-63
2022/04/08 02:18:38;;;;;;;11.63;2.75;;;8.60;70.70;;;;;;5074197;28;20021;-63
2022/04/08 02:21:04;;;;;;;6.50;1.50;;;8.60;70.80;;;;;;5071264;28;20029;-63
2022/04/08 02:23:30;;;;;;;13.07;1.88;;;8.60;70.80;;;;;;5073880;28;20027;-63
2022/04/08 02:25:56;;;;;;;8.48;2.00;;;8.50;70.70;;;;;;5072760;28;20055;-63
2022/04/08 02:28:21;;;;;;;7.53;2.10;;;8.60;70.70;;;;;;5056656;28;20029;-63
2022/04/08 02:30:48;;;;;;;10.07;2.05;;;8.50;70.70;;;;;;5054315;28;20044;-63
2022/04/08 02:33:13;;;;;;;7.57;1.20;;;8.50;70.80;;;;;;5069852;28;20060;-63
2022/04/08 02:35:39;;;;;;;9.73;1.67;;;8.50;70.90;;;;;;5063283;28;20048;-64
2022/04/08 02:38:05;;;;;;;10.57;2.13;;;8.50;70.90;;;;;;5064450;28;20024;-63
2022/04/08 02:40:30;;;;;;;15.38;3.38;;;8.50;71.60;;;;;;5052721;28;20033;-63
2022/04/08 02:42:56;;;;;;;8.52;2.70;;;8.40;71.00;;;;;;5065084;28;20044;-63
2022/04/08 02:45:21;;;;;;;11.48;2.42;;;8.40;71.10;;;;;;5071252;28;20033;-63
2022/04/08 02:47:47;;;;;;;9.60;1.88;;;8.40;71.20;;;;;;5053888;28;20060;-63
2022/04/08 02:50:13;;;;;;;7.43;1.73;;;8.40;71.20;;;;;;5054007;28;20029;-63
2022/04/08 02:52:39;;;;;;;8.35;2.13;;;8.40;71.90;;;;;;5060043;28;20115;-63
2022/04/08 02:55:05;;;;;;;12.77;2.40;;;8.40;71.30;;;;;;5053961;28;20442;-63
2022/04/08 02:57:31;;;;;;;14.43;1.58;;;8.30;71.30;;;;;;5055587;28;20036;-63
2022/04/08 02:59:59;;;;;;;12.85;1.95;;;8.30;71.30;;;;;;5064157;28;20029;-63
2022/04/08 03:02:24;;;;;;;7.95;1.60;;;8.30;71.30;;;;;;5054631;28;20036;-63
2022/04/08 03:04:51;;;;;;;8.73;1.73;;;8.30;71.30;;;;;;5077002;28;20020;-63
2022/04/08 03:07:17;;;;;;;7.30;1.50;;;8.30;71.30;;;;;;5063313;28;20028;-63
2022/04/08 03:09:43;;;;;;;11.50;1.98;;;8.30;71.30;;;;;;5070978;28;20455;-63
2022/04/08 03:12:09;;;;;;;9.50;2.63;;;8.30;71.30;;;;;;5057073;28;20071;-63
2022/04/08 03:14:35;;;;;;;6.63;1.70;;;8.30;71.30;;;;;;5039383;28;20079;-63
2022/04/08 03:17:01;;;;;;;9.82;1.98;;;8.30;71.20;;;;;;5056884;28;20068;-63
2022/04/08 03:19:27;;;;;;;10.82;1.77;;;8.30;71.80;;;;;;5076777;28;20024;-63
2022/04/08 03:21:54;;;;;;;5.00;1.50;;;8.30;71.10;;;;;;5067694;28;20362;-63
2022/04/08 03:24:19;;;;;;;11.70;2.00;;;8.30;71.00;;;;;;5057954;28;20033;-63
2022/04/08 03:26:47;;;;;;;7.97;1.88;;;8.30;71.00;;;;;;5063975;28;20097;-63
2022/04/08 03:29:14;;;;;;;5.57;1.27;;;8.20;70.90;;;;;;5059323;28;20472;-63
2022/04/08 03:31:39;;;;;;;6.45;1.90;;;8.20;70.90;;;;;;5056820;28;20045;-63
2022/04/08 03:34:05;;;;;;;5.97;1.38;;;8.20;70.90;;;;;;5058312;28;20484;-63
2022/04/08 03:36:30;;;;;;;6.68;1.80;;;8.20;70.90;;;;;;5056372;28;20039;-63
2022/04/08 03:38:56;;;;;;;7.93;2.03;;;8.20;70.90;;;;;;5057040;28;20446;-63
2022/04/08 03:41:21;;;;;;;7.72;2.03;;;8.30;70.80;;;;;;5057827;28;20083;-63
2022/04/08 03:43:47;;;;;;;7.30;1.70;;;8.30;70.80;;;;;;5067624;28;20029;-63
2022/04/08 03:46:13;;;;;;;8.25;1.50;;;8.30;70.70;;;;;;5076772;28;20175;-63
2022/04/08 03:48:42;;;;;;;11.38;2.35;;;8.30;70.70;;;;;;5067402;28;20116;-64
2022/04/08 03:51:08;;;;;;;7.53;1.70;;;8.30;70.60;;;;;;5056944;28;20434;-62
2022/04/08 03:53:34;;;;;;;4.97;1.55;;;8.30;70.70;;;;;;5064303;28;20032;-63
2022/04/08 03:56:02;;;;;;;4.60;1.45;;;8.30;70.70;;;;;;5062257;28;20388;-63
2022/04/08 03:58:28;;;;;;;6.88;1.70;;;8.30;70.60;;;;;;5062617;28;20371;-63
2022/04/08 04:00:54;;;;;;;6.60;1.42;;;8.30;70.60;;;;;;5076363;28;20032;-63
2022/04/08 04:03:20;;;;;;;8.10;1.73;;;8.30;70.60;;;;;;5071657;28;20033;-63
2022/04/08 04:05:45;;;;;;;6.40;1.25;;;8.30;70.70;;;;;;5055669;28;20083;-63
2022/04/08 04:08:20;;;;;;;6.03;1.58;;;8.20;70.70;;;;;;5059213;28;20032;-63
2022/04/08 04:10:46;;;;;;;10.80;1.90;;;8.20;70.90;;;;;;5059795;28;20124;-63
2022/04/08 04:13:11;;;;;;;9.30;1.85;;;8.10;70.90;;;;;;5059231;28;20033;-63
2022/04/08 04:15:37;;;;;;;7.72;1.70;;;8.10;71.00;;;;;;5058596;28;20084;-64
2022/04/08 04:18:04;;;;;;;6.18;1.48;;;8.10;71.10;;;;;;5058371;28;20033;-63
2022/04/08 04:20:30;;;;;;;7.53;1.48;;;8.00;71.10;;;;;;5057604;28;20025;-63
2022/04/08 04:22:55;;;;;;;6.93;1.75;;;8.00;71.10;;;;;;5057478;28;20459;-63
2022/04/08 04:25:21;;;;;;;5.60;1.25;;;8.00;71.10;;;;;;5051604;28;20036;-63
2022/04/08 04:27:46;;;;;;;4.57;1.00;;;7.90;71.00;;;;;;5045127;28;20036;-64
2022/04/08 04:30:12;;;;;;;4.85;1.20;;;7.90;71.10;;;;;;5038432;28;20441;-62
2022/04/08 04:32:38;;;;;;;5.95;1.38;;;7.90;71.20;;;;;;5038338;28;20052;-63
2022/04/08 04:35:06;;;;;;;3.53;1.30;;;7.90;71.20;;;;;;5045956;28;20029;-63
2022/04/08 04:37:41;;;;;;;5.63;1.75;;;7.90;71.30;;;;;;5037259;28;20037;-63
2022/04/08 04:40:08;;;;;;;4.82;1.38;;;7.80;71.20;;;;;;5038424;28;20021;-63
2022/04/08 04:42:34;;;;;;;6.05;1.60;;;7.80;71.40;;;;;;5039195;28;20048;-63
2022/04/08 04:44:59;;;;;;;4.00;1.10;;;7.80;71.40;;;;;;5038943;28;20029;-63
2022/04/08 04:47:26;;;;;;;4.18;1.40;;;7.70;71.40;;;;;;5045201;28;20039;-63
2022/04/08 04:49:51;;;;;;;5.90;1.77;;;7.70;71.50;;;;;;5061192;28;20111;-63
2022/04/08 04:52:17;;;;;;;5.22;1.50;;;7.70;71.50;;;;;;5055143;28;20108;-63
2022/04/08 04:54:42;;;;;;;5.00;1.50;;;7.70;71.60;;;;;;5064507;28;20033;-63
2022/04/08 04:57:08;;;;;;;7.25;1.58;;;7.60;71.60;;;;;;5056742;28;20040;-63
2022/04/08 04:59:34;;;;;;;6.10;1.15;;;7.60;71.70;;;;;;5054125;28;20036;-63
2022/04/08 05:02:00;;;;;;;5.15;1.70;;;7.60;71.80;;;;;;5054644;28;20071;-64
2022/04/08 05:04:26;;;;;;;6.38;1.88;;;7.60;71.80;;;;;;5066776;28;20410;-63
2022/04/08 05:06:51;;;;;;;7.80;1.80;;;7.60;71.90;;;;;;5054477;28;20044;-63
2022/04/08 05:09:17;;;;;;;6.95;1.73;;;7.60;71.90;;;;;;5054816;28;20029;-63
2022/04/08 05:11:43;;;;;;;8.73;1.95;;;7.60;71.90;;;;;;5052807;28;20025;-63
2022/04/08 05:14:08;;;;;;;7.78;1.70;;;7.60;72.10;;;;;;5060615;28;20032;-63
2022/04/08 05:16:34;;;;;;;6.20;1.73;;;7.60;72.10;;;;;;5055186;28;20480;-63
2022/04/08 05:18:59;;;;;;;9.05;2.10;;;7.60;72.10;;;;;;5065084;28;20024;-63
2022/04/08 05:21:26;;;;;;;9.30;2.08;;;7.60;72.10;;;;;;5071386;28;20040;-63
2022/04/08 05:23:52;;;;;;;12.48;1.90;;;7.60;72.20;;;;;;5054995;28;20025;-63
2022/04/08 05:26:18;;;;;;;6.88;2.45;;;7.60;72.20;;;;;;5054359;28;20357;-63
2022/04/08 05:28:44;;;;;;;6.60;2.05;;;7.60;72.10;;;;;;5053851;28;20162;-63
2022/04/08 05:31:10;;;;;;;7.50;1.85;;;7.60;72.10;;;;;;5054772;28;20409;-63
2022/04/08 05:33:35;;;;;;;5.90;1.92;;;7.60;72.10;;;;;;5055057;28;20021;-63
2022/04/08 05:36:01;;;;;;;7.65;2.22;;;7.70;72.00;;;;;;5054662;28;20086;-63
2022/04/08 05:38:26;;;;;;;5.55;2.10;;;7.70;71.90;;;;;;5055530;28;20039;-63
2022/04/08 05:40:52;;;;;;;7.93;2.40;;;7.70;71.90;;;;;;5069026;28;20036;-63
2022/04/08 05:43:17;;;;;;;8.68;2.70;;;7.70;71.90;;;;;;5058605;28;20021;-63
2022/04/08 05:45:43;;;;;;;7.40;2.20;;;7.80;71.90;;;;;;5054119;28;20036;-63
2022/04/08 05:48:09;;;;;;;9.77;2.00;;;7.80;71.70;;;;;;5059812;28;20033;-63
2022/04/08 05:50:34;;;;;;;7.25;1.63;;;7.90;71.70;;;;;;5061907;28;20364;-63
2022/04/08 05:53:00;;;;;;;6.65;2.25;;;8.00;71.60;;;;;;5073634;28;20036;-63
2022/04/08 05:55:26;;;;;;;6.38;2.38;;;8.00;71.40;;;;;;5059137;28;20037;-63
2022/04/08 05:57:56;;;;;;;9.30;2.22;;;8.10;71.40;;;;;;5055851;28;20053;-63
2022/04/08 06:00:23;;;;;;;8.20;2.50;;;8.10;71.30;;;;;;5071888;28;20021;-63
2022/04/08 06:02:49;;;;;;;11.40;2.17;;;8.20;71.20;;;;;;5056175;28;20028;-63
2022/04/08 06:05:18;;;;;;;5.93;1.73;;;8.40;70.90;;;;;;5054195;28;20025;-62
2022/04/08 06:07:50;;;;;;;5.45;1.80;;;8.60;70.40;;;;;;5053256;28;20385;-62
2022/04/08 06:10:22;;;;;;;7.03;1.92;;;8.60;70.00;;;;;;5052755;28;20037;-63
2022/04/08 06:12:51;;;;;;;6.13;2.22;;;8.70;70.70;;;;;;5054048;28;20086;-63
2022/04/08 06:15:17;;;;;;;7.78;2.65;;;8.70;70.00;;;;;;5050641;28;20033;-64
2022/04/08 06:17:43;;;;;;;6.57;2.00;;;8.70;70.00;;;;;;5052950;28;20421;-64
2022/04/08 06:20:11;;;;;;;8.10;2.72;;;8.80;69.80;;;;;;5052124;28;20052;-63
2022/04/08 06:22:40;;;;;;;7.95;2.20;;;8.90;69.50;;;;;;5052682;28;20032;-63
2022/04/08 06:25:14;;;;;;;7.57;1.88;;;9.00;69.30;;;;;;5051780;28;20029;-63
2022/04/08 06:27:40;;;;;;;7.60;2.17;;;9.10;69.00;;;;;;5050743;28;20548;-63
2022/04/08 06:30:10;;;;;;;10.60;2.50;;;9.30;68.80;;;;;;5052719;28;20131;-63
2022/04/08 06:32:41;;;;;;;5.90;1.70;;;9.60;68.20;;;;;;5053182;28;20076;-63
2022/04/08 06:35:06;;;;;;;10.38;2.17;;;9.90;67.50;;;;;;5059677;28;20033;-63
2022/04/08 06:37:32;;;;;;;6.70;2.33;;;10.30;66.80;;;;;;5052532;28;20541;-64
2022/04/08 06:40:07;;;;;;;7.70;2.20;;;10.40;66.10;;;;;;5057866;28;20031;-64
2022/04/08 06:42:32;;;;;;;10.02;2.10;;;10.50;65.90;;;;;;5053952;28;20322;-63
2022/04/08 06:44:59;;;;;;;7.43;1.92;;;10.50;65.90;;;;;;5055768;28;20040;-63
2022/04/08 06:47:25;;;;;;;9.30;2.85;;;10.40;65.90;;;;;;5057208;28;20040;-63
2022/04/08 06:49:50;;;;;;;8.20;2.35;;;10.30;66.10;;;;;;5055900;28;20085;-63
2022/04/08 06:52:16;;;;;;;6.40;1.95;;;10.30;66.30;;;;;;5056264;28;20452;-63
2022/04/08 06:54:42;;;;;;;7.07;2.13;;;10.30;66.30;;;;;;5054891;28;20040;-63
2022/04/08 06:57:07;;;;;;;7.32;2.22;;;10.30;66.20;;;;;;5055884;28;20409;-63
2022/04/08 06:59:35;;;;;;;6.32;2.10;;;10.30;66.20;;;;;;5053282;28;20488;-63
2022/04/08 07:02:01;;;;;;;10.50;2.70;;;10.40;66.10;;;;;;5053363;28;20028;-64
2022/04/08 07:04:26;;;;;;;6.93;2.42;;;10.40;66.00;;;;;;5054756;28;20025;-63
2022/04/08 07:06:53;;;;;;;7.53;2.50;;;10.40;65.90;;;;;;5054591;28;20087;-63
2022/04/08 07:09:19;;;;;;;9.32;2.45;;;10.40;65.90;;;;;;5055396;28;20441;-63
2022/04/08 07:11:45;;;;;;;9.95;2.42;;;10.40;65.90;;;;;;5056148;28;20048;-63
2022/04/08 07:14:10;;;;;;;10.43;2.63;;;10.40;65.80;;;;;;5055590;28;20064;-63
2022/04/08 07:16:36;;;;;;;7.95;2.13;;;10.40;65.80;;;;;;5064459;28;20078;-72
2022/04/08 07:19:01;;;;;;;6.30;1.98;;;10.50;65.80;;;;;;5057924;28;20040;-64
2022/04/08 07:21:27;;;;;;;10.88;2.40;;;10.50;65.70;;;;;;5065005;28;20030;-63
2022/04/08 07:23:53;;;;;;;5.95;1.67;;;10.40;65.80;;;;;;5076996;28;20488;-64
2022/04/08 07:26:20;;;;;;;8.75;2.40;;;10.40;65.80;;;;;;5062577;28;20162;-64
2022/04/08 07:28:46;;;;;;;6.20;1.98;;;10.50;65.80;;;;;;5056795;28;20040;-64
2022/04/08 07:31:13;;;;;;;9.98;2.15;;;10.60;65.60;;;;;;5057233;28;20370;-63
2022/04/08 07:33:38;;;;;;;8.05;2.35;;;10.60;65.40;;;;;;5056574;28;20029;-63
2022/04/08 07:36:05;;;;;;;11.30;2.10;;;10.70;65.40;;;;;;5049335;28;20035;-64
2022/04/08 07:38:31;;;;;;;7.03;2.10;;;10.70;65.30;;;;;;5036802;28;20361;-64
2022/04/08 07:40:59;;;;;;;6.20;2.20;;;10.70;65.30;;;;;;5038327;28;20108;-63
2022/04/08 07:43:25;;;;;;;5.40;2.38;;;10.60;65.30;;;;;;5042374;28;20414;-63
2022/04/08 07:45:51;;;;;;;7.15;2.17;;;10.60;65.30;;;;;;5054590;28;20117;-63
2022/04/08 07:48:17;;;;;;;6.88;1.83;;;10.60;65.20;;;;;;5055890;28;20135;-64
2022/04/08 07:50:43;;;;;;;6.68;2.30;;;10.60;65.30;;;;;;5056991;28;20441;-63
2022/04/08 07:53:08;;;;;;;8.82;2.45;;;10.60;65.20;;;;;;5066394;28;20399;-63
2022/04/08 07:55:34;;;;;;;9.10;2.55;;;10.60;65.30;;;;;;5059698;28;20040;-63
2022/04/08 07:58:00;;;;;;;8.27;2.55;;;10.60;65.40;;;;;;5056739;28;20420;-64
2022/04/08 08:00:27;;;;;;;5.78;2.03;;;10.60;65.40;;;;;;5055880;28;20116;-64
2022/04/08 08:02:54;;;;;;;8.18;2.05;;;10.70;65.40;;;;;;5055328;28;20035;-63
2022/04/08 08:05:20;;;;;;;7.10;2.35;;;10.80;65.20;;;;;;5056044;28;20052;-62
2022/04/08 08:08:05;;;;;;;7.78;2.13;;;10.90;65.00;;;;;;5055722;28;20033;-62
2022/04/08 08:10:35;;;;;;;10.40;2.33;;;10.90;64.50;;;;;;5054732;28;20037;-63
2022/04/08 08:13:02;;;;;;;7.20;2.05;;;11.00;64.50;;;;;;5068064;28;20032;-62
2022/04/08 08:15:28;;;;;;;8.45;2.42;;;10.90;64.30;;;;;;5055450;28;20047;-62
2022/04/08 08:17:55;;;;;;;5.78;1.88;;;10.90;64.10;;;;;;5067711;28;20036;-63
2022/04/08 08:20:22;;;;;;;7.65;2.45;;;10.90;64.00;;;;;;5056259;28;20032;-62
2022/04/08 08:22:48;;;;;;;9.40;2.00;;;10.90;63.90;;;;;;5038952;28;20507;-63
2022/04/08 08:25:15;;;;;;;6.28;1.60;;;10.90;63.70;;;;;;5063364;28;20032;-62
2022/04/08 08:27:42;;;;;;;7.55;2.20;;;10.90;63.60;;;;;;5053538;28;20029;-63
2022/04/08 08:30:10;;;;;;;6.18;1.75;;;11.00;63.50;;;;;;5056534;28;20418;-62
2022/04/08 08:32:37;;;;;;;4.88;1.52;;;11.00;63.20;;;;;;5045828;28;20049;-63
2022/04/08 08:35:07;;;;;;;4.65;1.83;;;11.10;63.00;;;;;;5059885;28;20025;-63
2022/04/08 08:37:34;;;;;;;5.65;1.60;;;11.20;62.90;;;;;;5056278;28;20437;-62
2022/04/08 08:39:59;;;;;;;5.95;1.83;;;11.20;62.50;;;;;;5054775;28;20020;-62
2022/04/08 08:42:26;;;;;;;5.28;1.58;;;11.30;62.20;;;;;;5043324;28;20377;-63
2022/04/08 08:44:52;;;;;;;8.35;2.03;;;11.40;62.00;;;;;;5063412;28;20036;-62
2022/04/08 08:47:18;;;;;;;8.00;1.80;;;11.50;61.90;;;;;;5053986;28;20037;-62
2022/04/08 08:49:50;;;;;;;8.32;1.98;;;11.50;61.60;;;;;;5054871;28;20364;-63
2022/04/08 08:52:19;;;;;;;;;;;11.60;61.40;;;;;;5062236;28;20033;-62
2022/04/08 08:54:46;;;;;;;7.75;2.08;;;11.60;61.50;;;;;;5043407;28;19914;-62
2022/04/08 08:57:14;;;;;;;5.78;1.70;;;11.70;62.20;;;;;;5067167;28;20091;-62
2022/04/08 08:59:39;;;;;;;6.38;1.80;;;11.70;61.40;;;;;;5062894;28;20045;-62
2022/04/08 09:02:05;;;;;;;8.45;2.30;;;11.80;61.40;;;;;;5043933;28;20026;-62
2022/04/08 09:04:31;;;;;;;7.03;2.00;;;11.80;61.30;;;;;;5047469;28;20033;-63
2022/04/08 09:06:57;;;;;;;6.03;2.10;;;11.80;61.20;;;;;;5049425;28;20064;-62
2022/04/08 09:09:30;;;;;;;6.45;2.03;;;11.80;61.00;;;;;;5051145;28;20028;-63
2022/04/08 09:12:17;;;;;;;8.27;2.10;;;11.90;60.90;;;;;;5040236;28;20068;-62
2022/04/08 09:14:54;;;;;;;5.47;2.05;;;11.90;60.80;;;;;;5034517;28;20709;-63
2022/04/08 09:17:22;;;;;;;6.95;2.45;;;12.00;60.70;;;;;;5039338;28;20036;-63
2022/04/08 09:19:53;;;;;;;8.20;2.17;;;12.10;60.60;;;;;;5044597;28;20021;-62
2022/04/08 09:22:20;;;;;;;8.10;1.85;;;12.20;60.10;;;;;;5034993;28;20025;-62
2022/04/08 09:24:46;;;;;;;7.78;2.15;;;12.30;60.10;;;;;;5040325;28;20029;-62
2022/04/08 09:27:12;;;;;;;7.07;2.05;;;12.40;59.90;;;;;;5040479;28;20033;-62
2022/04/08 09:29:43;;;;;;;5.18;1.90;;;12.50;59.70;;;;;;5042738;28;20021;-63
2022/04/08 09:32:10;;;;;;;8.63;2.00;;;12.50;59.60;;;;;;5034457;28;20060;-62
2022/04/08 09:34:37;;;;;;;9.10;2.30;;;12.40;59.60;;;;;;5039283;28;20437;-62
2022/04/08 09:37:20;;;;;;;5.45;2.10;;;12.40;59.50;;;;;;5034304;28;20037;-63
2022/04/08 09:40:04;;;;;;;7.00;1.90;;;12.50;59.20;;;;;;5045580;28;20017;-63
2022/04/08 09:42:45;;;;;;;7.97;2.10;;;12.50;59.00;;;;;;5049393;28;20032;-62
2022/04/08 09:45:12;;;;;;;5.97;2.28;;;12.50;58.90;;;;;;5048346;28;20043;-63
2022/04/08 09:47:39;;;;;;;7.03;2.08;;;12.50;59.00;;;;;;5047763;28;20453;-62
2022/04/08 09:50:07;;;;;;;5.70;1.92;;;12.50;59.00;;;;;;5051773;28;20026;-63
2022/04/08 09:52:33;;;;;;;7.38;1.70;;;12.50;58.90;;;;;;5046114;28;20074;-64
2022/04/08 09:55:03;;;;;;;9.13;2.20;;;12.50;58.90;;;;;;5044928;28;20040;-63
2022/04/08 09:57:35;;;;;;;7.88;2.05;;;12.50;58.90;;;;;;5043500;28;20410;-63
2022/04/08 10:00:01;;;;;;;7.38;2.55;;;12.40;58.80;;;;;;5038432;28;20070;-63
2022/04/08 10:02:28;;;;;;;6.47;1.98;;;12.40;58.90;;;;;;5039998;28;20021;-63
2022/04/08 10:04:58;;;;;;;7.80;2.05;;;12.30;58.80;;;;;;5037331;28;20031;-63
2022/04/08 10:07:24;;;;;;;6.05;1.77;;;12.20;58.90;;;;;;5039483;28;20044;-63
2022/04/08 10:10:13;;;;;;;6.78;2.00;;;12.20;59.00;;;;;;5047820;28;20040;-62
2022/04/08 10:12:57;;;;;;;7.07;1.80;;;12.20;59.00;;;;;;5057031;28;20044;-62
2022/04/08 10:15:43;;;;;;;5.68;1.92;;;12.20;59.20;;;;;;5057311;28;20032;-62
2022/04/08 10:18:09;;;;;;;6.72;2.38;;;12.20;59.00;;;;;;5053261;28;20041;-62
2022/04/08 10:20:37;;;;;;;6.68;1.80;;;12.20;58.90;;;;;;5056956;28;20029;-62
2022/04/08 10:23:15;;;;;;;9.52;2.70;;;12.20;58.80;;;;;;5056601;28;20025;-61
2022/04/08 10:25:47;;;;;;;5.85;2.05;;;12.20;58.70;;;;;;5068013;28;20029;-61
2022/04/08 10:28:14;;;;;;;7.10;1.95;;;12.30;58.60;;;;;;5059182;28;20130;-60
2022/04/08 10:30:47;;;;;;;7.43;2.08;;;12.30;58.50;;;;;;5066121;28;20029;-60
2022/04/08 10:33:22;;;;;;;7.97;2.10;;;12.30;58.30;;;;;;5053546;28;20359;-59
2022/04/08 10:35:55;;;;;;;6.22;2.80;;;12.30;58.30;;;;;;5056371;28;20078;-59
2022/04/08 10:38:21;;;;;;;9.23;2.20;;;12.30;58.30;;;;;;5056405;28;20050;-58
2022/04/08 10:40:56;;;;;;;5.35;1.88;;;12.20;58.30;;;;;;5056409;28;20048;-60
2022/04/08 10:43:22;;;;;;;6.13;2.20;;;12.20;58.40;;;;;;5053901;28;20620;-60
2022/04/08 10:45:56;;;;;;;4.78;2.03;;;12.20;58.30;;;;;;5056449;28;20021;-60
2022/04/08 10:48:23;;;;;;;5.68;2.60;;;12.20;58.10;;;;;;5056948;28;20029;-60
2022/04/08 10:50:50;;;;;;;7.65;2.70;;;12.20;58.10;;;;;;5055816;28;20472;-59
2022/04/08 10:53:22;;;;;;;6.63;1.95;;;12.20;58.10;;;;;;5055277;28;20338;-60
2022/04/08 10:55:48;;;;;;;6.80;2.22;;;12.20;58.10;;;;;;5056042;28;20442;-61
2022/04/08 10:58:15;;;;;;;7.10;2.33;;;12.20;58.10;;;;;;5056857;28;20032;-59
2022/04/08 11:00:44;;;;;;;8.15;2.50;;;12.20;58.10;;;;;;5071946;28;20116;-61
2022/04/08 11:03:10;;;;;;;7.22;2.45;;;12.20;58.10;;;;;;5056477;28;20036;-61
2022/04/08 11:05:39;;;;;;;9.95;2.90;;;12.30;58.00;;;;;;5057456;28;20108;-60
2022/04/08 11:08:06;;;;;;;8.80;2.92;;;12.30;58.00;;;;;;5056246;28;20469;-61
2022/04/08 11:10:32;;;;;;;9.65;3.42;;;12.30;58.20;;;;;;5040046;28;20056;-60
2022/04/08 11:12:59;;;;;;;10.80;2.38;;;12.30;58.20;;;;;;5056264;28;20040;-61
2022/04/08 11:15:30;;;;;;;7.75;3.08;;;12.40;58.20;;;;;;5068425;28;20064;-60
2022/04/08 11:17:59;;;;;;;8.40;2.67;;;12.40;57.90;;;;;;5077355;28;20029;-60
2022/04/08 11:20:24;;;;;;;9.23;3.05;;;12.50;57.70;;;;;;5050185;28;20044;-60
2022/04/08 11:22:55;;;;;;;8.18;2.95;;;12.50;57.70;;;;;;5056102;28;20063;-61
2022/04/08 11:25:21;;;;;;;9.45;2.60;;;12.60;57.50;;;;;;5067291;28;20112;-61
2022/04/08 11:28:03;;;;;;;7.65;3.08;;;12.60;57.40;;;;;;5057850;28;20448;-60
2022/04/08 11:30:31;;;;;;;8.82;3.00;;;12.60;57.40;;;;;;5057622;28;20512;-59
2022/04/08 11:32:57;;;;;;;7.30;2.38;;;12.50;57.50;;;;;;5070058;28;20461;-59
2022/04/08 11:35:27;;;;;;;8.57;3.45;;;12.60;57.50;;;;;;5064566;28;20035;-58
2022/04/08 11:37:52;;;;;;;8.23;2.95;;;12.60;57.30;;;;;;5076451;28;20461;-61
2022/04/08 11:40:18;;;;;;;6.78;2.75;;;12.60;57.30;;;;;;5075264;28;20056;-61
2022/04/08 11:42:47;;;;;;;6.57;2.63;;;12.60;57.30;;;;;;5058483;28;20445;-59
2022/04/08 11:45:15;;;;;;;8.05;2.75;;;12.70;57.30;;;;;;5057614;28;20017;-62
2022/04/08 11:47:46;;;;;;;10.02;3.00;;;12.70;57.20;;;;;;5055164;28;20055;-59
2022/04/08 11:50:12;;;;;;;8.30;3.78;;;12.70;57.20;;;;;;5059517;28;20369;-59
2022/04/08 11:52:38;;;;;;;9.05;3.58;;;12.60;57.20;;;;;;5056220;28;20032;-59
2022/04/08 11:55:05;;;;;;;7.13;3.05;;;12.60;57.20;;;;;;5043440;28;20036;-59
2022/04/08 11:57:32;;;;;;;9.48;3.15;;;12.50;57.30;;;;;;5076357;28;20059;-59
2022/04/08 11:59:59;;;;;;;7.75;2.67;;;12.40;58.00;;;;;;5075105;28;20362;-59
2022/04/08 12:02:25;;;;;;;8.00;3.00;;;12.50;57.50;;;;;;5056532;28;20025;-59
2022/04/08 12:04:51;;;;;;;7.57;2.70;;;12.50;57.50;;;;;;5058383;28;20338;-59
2022/04/08 12:07:22;;;;;;;8.05;3.00;;;12.60;57.50;;;;;;5064745;28;20121;-59
2022/04/08 12:09:48;;;;;;;9.48;3.03;;;12.70;57.30;;;;;;5067466;28;20032;-59
2022/04/08 12:12:21;;;;;;;10.40;3.20;;;12.70;57.40;;;;;;5056366;28;20028;-59
2022/04/08 12:14:46;;;;;;;9.32;2.92;;;12.70;57.30;;;;;;5055852;28;20032;-59
2022/04/08 12:17:12;;;;;;;5.72;2.35;;;12.70;57.20;;;;;;5055648;28;20039;-60
2022/04/08 12:19:41;;;;;;;9.18;2.60;;;12.70;57.10;;;;;;5055840;28;20040;-60
2022/04/08 12:22:15;;;;;;;6.65;2.08;;;12.60;56.90;;;;;;5056121;28;20029;-60
2022/04/08 12:24:42;;;;;;;6.05;2.47;;;12.50;57.00;;;;;;5055234;28;20446;-59
2022/04/08 12:27:20;;;;;;;7.43;2.40;;;12.40;57.10;;;;;;5074359;28;20033;-60
2022/04/08 12:29:57;;;;;;;15.05;2.75;;;12.40;57.30;;;;;;5072529;28;20461;-60
2022/04/08 12:32:24;;;;;;;6.55;2.50;;;12.30;57.30;;;;;;5064877;28;20335;-59
2022/04/08 12:34:50;;;;;;;7.47;2.78;;;12.30;57.50;;;;;;5067347;28;20413;-60
2022/04/08 12:37:16;;;;;;;10.05;2.78;;;12.40;57.40;;;;;;5055036;28;20365;-60
2022/04/08 12:39:42;;;;;;;7.72;2.55;;;12.40;57.40;;;;;;5055598;28;20044;-60
2022/04/08 12:42:08;;;;;;;6.82;2.75;;;12.40;57.50;;;;;;5054485;28;20112;-60
2022/04/08 12:44:33;;;;;;;8.82;2.42;;;12.40;57.50;;;;;;5055826;28;20107;-61
2022/04/08 12:46:59;;;;;;;9.00;2.75;;;12.50;57.40;;;;;;5054543;28;20124;-60
2022/04/08 12:49:25;;;;;;;7.03;2.50;;;12.50;57.30;;;;;;5061071;28;20028;-60
2022/04/08 12:51:50;;;;;;;6.45;2.70;;;12.60;57.30;;;;;;5054947;28;20414;-60